Time;durP1;ratioP1;P1;durP2;ratioP2;P2;SDS_P1;SDS_P2;PMS_P1;PMS_P2;Temp;Humidity;BMP_temperature;BMP_pressure;BME280_temperature;BME280_humidity;BME280_pressure;Samples;Min_cycle;Max_cycle;Signal;HPM_P1;HPM_P2
2022/03/17 00:01:48;;;;;;;47.60;28.73;;;;;;;;;;6253790;22;20000;-84
2022/03/17 00:04:14;;;;;;;44.53;28.52;;;;;;;;;;6253779;22;20010;-84
2022/03/17 00:06:41;;;;;;;46.47;28.80;;;;;;;;;;6254175;22;20379;-84
2022/03/17 00:09:07;;;;;;;45.63;27.42;;;;;;;;;;6254013;22;20004;-84
2022/03/17 00:11:33;;;;;;;52.58;29.52;;;;;;;;;;6254347;22;20004;-85
2022/03/17 00:14:01;;;;;;;47.65;28.25;;;;;;;;;;6253752;22;20141;-85
2022/03/17 00:16:28;;;;;;;48.03;29.15;;;;;;;;;;6281452;22;19995;-85
2022/03/17 00:18:55;;;;;;;47.55;27.15;;;;;;;;;;6252140;22;20000;-82
2022/03/17 00:21:22;;;;;;;44.65;27.25;;;;;;;;;;6253821;22;20075;-81
2022/03/17 00:23:48;;;;;;;52.63;29.95;;;;;;;;;;6254004;22;20063;-82
2022/03/17 00:26:15;;;;;;;45.08;28.50;;;;;;;;;;6253396;22;20000;-84
2022/03/17 00:28:41;;;;;;;43.88;26.60;;;;;;;;;;6280057;22;19995;-84
2022/03/17 00:31:07;;;;;;;46.40;28.08;;;;;;;;;;6252406;22;20006;-83
2022/03/17 00:33:33;;;;;;;45.53;28.00;;;;;;;;;;6252610;22;20038;-85
2022/03/17 00:35:59;;;;;;;49.47;29.83;;;;;;;;;;6252745;22;20000;-85
2022/03/17 00:38:25;;;;;;;48.50;28.58;;;;;;;;;;6280923;22;19995;-85
2022/03/17 00:40:51;;;;;;;47.53;27.92;;;;;;;;;;6254090;22;19999;-84
2022/03/17 00:43:18;;;;;;;47.53;27.58;;;;;;;;;;6254517;22;20091;-85
2022/03/17 00:45:45;;;;;;;49.15;29.17;;;;;;;;;;6255347;22;20432;-85
2022/03/17 00:48:12;;;;;;;48.08;29.63;;;;;;;;;;6255169;22;20347;-85
2022/03/17 00:50:38;;;;;;;52.53;29.25;;;;;;;;;;6253931;22;20027;-85
2022/03/17 00:53:04;;;;;;;50.83;30.77;;;;;;;;;;6253977;22;20086;-85
2022/03/17 00:55:30;;;;;;;50.70;29.80;;;;;;;;;;6281086;22;20054;-85
2022/03/17 00:57:56;;;;;;;46.60;27.95;;;;;;;;;;6254538;22;20029;-84
2022/03/17 01:00:22;;;;;;;48.17;28.02;;;;;;;;;;6252980;22;20094;-84
2022/03/17 01:02:55;;;;;;;43.65;26.95;;;;;;;;;;6280675;22;20404;-84
2022/03/17 01:05:22;;;;;;;49.03;28.80;;;;;;;;;;6253869;22;20008;-85
2022/03/17 01:07:48;;;;;;;48.25;28.58;;;;;;;;;;6280571;22;19999;-84
2022/03/17 01:10:16;;;;;;;45.67;28.73;;;;;;;;;;6253079;22;20004;-86
2022/03/17 01:12:44;;;;;;;51.25;30.10;;;;;;;;;;6253534;22;20004;-84
2022/03/17 01:15:10;;;;;;;47.05;29.17;;;;;;;;;;6252745;22;20004;-84
2022/03/17 01:17:36;;;;;;;53.28;31.45;;;;;;;;;;6253727;22;20485;-84
2022/03/17 01:20:02;;;;;;;48.17;30.85;;;;;;;;;;6253599;22;20026;-84
2022/03/17 01:22:28;;;;;;;53.55;30.10;;;;;;;;;;6253774;22;20029;-81
2022/03/17 01:24:54;;;;;;;48.65;29.63;;;;;;;;;;6280809;22;20012;-85
2022/03/17 01:27:20;;;;;;;46.70;27.35;;;;;;;;;;6280146;22;20003;-83
2022/03/17 01:29:55;;;;;;;47.88;29.42;;;;;;;;;;6280511;22;20057;-85
2022/03/17 01:32:22;;;;;;;51.25;29.73;;;;;;;;;;6253630;22;20387;-84
2022/03/17 01:34:49;;;;;;;52.25;31.52;;;;;;;;;;6252628;22;20081;-84
2022/03/17 01:37:15;;;;;;;51.50;30.98;;;;;;;;;;6253055;22;20079;-82
2022/03/17 01:42:45;;;;;;;51.72;30.15;;;;;;;;;;6279565;22;20038;-83
2022/03/17 01:45:11;;;;;;;52.13;30.17;;;;;;;;;;6252600;22;20055;-83
2022/03/17 01:47:37;;;;;;;50.60;30.42;;;;;;;;;;6252669;22;20010;-84
2022/03/17 01:50:11;;;;;;;50.42;30.50;;;;;;;;;;6252656;22;20246;-83
2022/03/17 01:52:38;;;;;;;51.80;29.27;;;;;;;;;;6252655;22;20381;-85
2022/03/17 01:55:05;;;;;;;46.63;28.80;;;;;;;;;;6279679;22;20011;-84
2022/03/17 01:57:31;;;;;;;50.75;29.15;;;;;;;;;;6252642;22;20000;-82
2022/03/17 01:59:59;;;;;;;46.33;28.40;;;;;;;;;;6252513;22;20043;-82
2022/03/17 02:02:25;;;;;;;49.85;29.40;;;;;;;;;;6279911;22;20340;-82
2022/03/17 02:04:51;;;;;;;51.95;30.40;;;;;;;;;;6279747;22;20083;-82
2022/03/17 02:07:19;;;;;;;48.95;29.20;;;;;;;;;;6253073;22;20339;-82
2022/03/17 02:09:45;;;;;;;52.08;30.95;;;;;;;;;;6279810;22;20661;-81
2022/03/17 02:15:01;;;;;;;48.42;28.92;;;;;;;;;;6279879;22;20126;-85
2022/03/17 02:17:30;;;;;;;48.10;27.35;;;;;;;;;;6279941;22;19996;-83
2022/03/17 02:19:56;;;;;;;55.25;31.75;;;;;;;;;;6252175;22;20000;-84
2022/03/17 02:22:22;;;;;;;53.03;31.00;;;;;;;;;;6280090;22;20006;-84
2022/03/17 02:27:38;;;;;;;49.13;29.70;;;;;;;;;;6280211;22;20030;-82
2022/03/17 02:30:04;;;;;;;47.92;28.42;;;;;;;;;;6252856;22;20081;-84
2022/03/17 02:32:33;;;;;;;48.67;29.17;;;;;;;;;;6280025;22;20000;-84
2022/03/17 02:35:03;;;;;;;54.72;30.65;;;;;;;;;;6279692;22;20072;-82
2022/03/17 02:37:29;;;;;;;49.17;28.73;;;;;;;;;;6252786;22;20007;-83
2022/03/17 02:39:56;;;;;;;52.55;29.13;;;;;;;;;;6252852;22;20000;-82
2022/03/17 02:42:23;;;;;;;49.25;27.63;;;;;;;;;;6279888;22;20024;-81
2022/03/17 02:44:49;;;;;;;48.58;28.13;;;;;;;;;;6252959;22;20066;-81
2022/03/17 02:47:15;;;;;;;49.78;29.98;;;;;;;;;;6253228;22;20011;-83
2022/03/17 02:49:41;;;;;;;49.65;30.48;;;;;;;;;;6280192;22;20061;-81
2022/03/17 02:52:07;;;;;;;43.97;27.80;;;;;;;;;;6252600;22;20087;-81
2022/03/17 02:54:33;;;;;;;49.05;29.48;;;;;;;;;;6279575;22;20000;-81
2022/03/17 02:56:59;;;;;;;46.50;28.52;;;;;;;;;;6251921;22;20006;-81
2022/03/17 02:59:25;;;;;;;52.47;29.73;;;;;;;;;;6252226;22;20445;-81
2022/03/17 03:01:51;;;;;;;45.00;27.02;;;;;;;;;;6280624;22;20006;-82
2022/03/17 03:04:17;;;;;;;48.00;27.33;;;;;;;;;;6253804;22;20010;-82
2022/03/17 03:06:47;;;;;;;46.97;26.90;;;;;;;;;;6253968;22;20010;-82
2022/03/17 03:09:13;;;;;;;47.92;27.83;;;;;;;;;;6280299;22;20443;-82
2022/03/17 03:11:39;;;;;;;48.33;26.88;;;;;;;;;;6253647;22;20012;-82
2022/03/17 03:14:07;;;;;;;51.65;29.33;;;;;;;;;;6281166;22;20004;-82
2022/03/17 03:19:36;;;;;;;51.30;28.95;;;;;;;;;;6281779;22;20006;-82
2022/03/17 03:22:03;;;;;;;52.67;29.77;;;;;;;;;;6281817;22;20079;-81
2022/03/17 03:24:28;;;;;;;47.40;29.23;;;;;;;;;;6281494;22;20000;-81
2022/03/17 03:26:54;;;;;;;46.38;28.55;;;;;;;;;;6254928;22;20007;-82
2022/03/17 03:29:25;;;;;;;46.88;27.98;;;;;;;;;;6253738;22;20335;-82
2022/03/17 03:31:52;;;;;;;48.28;28.92;;;;;;;;;;6281021;22;20250;-82
2022/03/17 03:34:18;;;;;;;50.17;29.83;;;;;;;;;;6254648;22;20030;-83
2022/03/17 03:39:29;;;;;;;47.35;27.48;;;;;;;;;;6281043;22;20015;-82
2022/03/17 03:41:55;;;;;;;46.25;27.50;;;;;;;;;;6280451;22;20498;-83
2022/03/17 03:44:21;;;;;;;47.65;28.83;;;;;;;;;;6280743;22;19999;-82
2022/03/17 03:46:47;;;;;;;48.10;27.30;;;;;;;;;;6281842;22;20463;-82
2022/03/17 03:49:13;;;;;;;47.42;28.30;;;;;;;;;;6281046;22;20015;-83
2022/03/17 03:51:39;;;;;;;46.65;27.08;;;;;;;;;;6280988;22;20003;-82
2022/03/17 03:54:15;;;;;;;48.00;27.65;;;;;;;;;;6280806;22;20026;-82
2022/03/17 03:56:45;;;;;;;50.05;29.35;;;;;;;;;;6281953;22;19999;-83
2022/03/17 03:59:18;;;;;;;44.67;27.30;;;;;;;;;;6285353;22;20100;-82
2022/03/17 04:01:44;;;;;;;49.65;27.02;;;;;;;;;;6283170;22;20078;-83
2022/03/17 04:07:13;;;;;;;49.85;27.25;;;;;;;;;;6281675;22;20030;-82
2022/03/17 04:09:41;;;;;;;51.08;28.80;;;;;;;;;;6254362;22;20094;-83
2022/03/17 04:12:08;;;;;;;54.63;29.52;;;;;;;;;;6253703;22;20010;-82
2022/03/17 04:14:34;;;;;;;48.88;28.30;;;;;;;;;;6254526;22;20053;-82
2022/03/17 04:17:01;;;;;;;53.70;29.88;;;;;;;;;;6254391;22;20000;-82
2022/03/17 04:22:30;;;;;;;;;;;;;;;;;;6282016;22;20010;-82
2022/03/17 04:24:56;;;;;;;48.28;26.08;;;;;;;;;;6253154;22;19899;-82
2022/03/17 04:30:26;;;;;;;58.00;32.75;;;;;;;;;;6282174;22;20003;-82
2022/03/17 04:32:52;;;;;;;60.05;32.78;;;;;;;;;;6254316;22;20086;-83
2022/03/17 04:35:18;;;;;;;62.00;31.83;;;;;;;;;;6253173;22;20061;-82
2022/03/17 04:37:44;;;;;;;65.80;34.63;;;;;;;;;;6254507;22;20026;-83
2022/03/17 04:40:10;;;;;;;65.00;35.90;;;;;;;;;;6254374;22;19996;-83
2022/03/17 04:42:36;;;;;;;62.13;33.35;;;;;;;;;;6254418;22;20000;-82
2022/03/17 04:50:34;;;;;;;66.78;35.90;;;;;;;;;;5036871;22;20043;-83
2022/03/17 04:58:06;;;;;;;59.08;34.67;;;;;;;;;;6035367;22;20026;-85
2022/03/17 05:00:33;;;;;;;56.67;33.25;;;;;;;;;;6268742;22;20007;-84
2022/03/17 05:02:59;;;;;;;58.95;32.40;;;;;;;;;;6293804;22;20488;-85
2022/03/17 05:05:25;;;;;;;60.92;32.97;;;;;;;;;;6293599;22;20003;-85
2022/03/17 05:07:56;;;;;;;60.15;32.72;;;;;;;;;;6292314;22;20453;-83
2022/03/17 05:10:24;;;;;;;58.80;33.35;;;;;;;;;;6289720;22;20007;-85
2022/03/17 05:12:50;;;;;;;59.22;31.85;;;;;;;;;;6315011;22;20083;-85
2022/03/17 05:15:16;;;;;;;54.28;32.85;;;;;;;;;;6288591;22;20000;-84
2022/03/17 05:17:42;;;;;;;59.08;34.33;;;;;;;;;;6315156;22;19995;-83
2022/03/17 05:20:12;;;;;;;57.85;32.90;;;;;;;;;;6311730;22;19999;-82
2022/03/17 05:22:39;;;;;;;55.78;30.23;;;;;;;;;;6283355;22;20005;-81
2022/03/17 05:25:06;;;;;;;51.30;30.10;;;;;;;;;;6312134;22;20063;-83
2022/03/17 05:27:35;;;;;;;57.53;33.30;;;;;;;;;;6314428;22;20003;-84
2022/03/17 05:30:03;;;;;;;61.97;32.97;;;;;;;;;;6313253;22;20346;-83
2022/03/17 05:35:32;;;;;;;59.67;33.65;;;;;;;;;;6318480;22;20014;-83
2022/03/17 05:38:00;;;;;;;61.13;33.15;;;;;;;;;;6321747;22;19999;-83
2022/03/17 05:40:26;;;;;;;60.22;34.67;;;;;;;;;;6294165;22;20000;-82
2022/03/17 05:42:54;;;;;;;55.58;32.22;;;;;;;;;;6292293;22;20026;-83
2022/03/17 05:45:21;;;;;;;58.45;31.80;;;;;;;;;;6314648;22;20006;-83
2022/03/17 05:47:48;;;;;;;61.25;35.15;;;;;;;;;;6283190;22;20003;-84
2022/03/17 05:50:16;;;;;;;64.97;36.78;;;;;;;;;;6284527;22;20525;-82
2022/03/17 05:52:42;;;;;;;65.18;35.83;;;;;;;;;;6284775;22;20003;-83
2022/03/17 05:55:09;;;;;;;64.57;37.00;;;;;;;;;;6285790;22;20007;-82
2022/03/17 05:57:36;;;;;;;69.13;35.80;;;;;;;;;;6312059;22;20013;-82
2022/03/17 06:00:02;;;;;;;71.03;38.00;;;;;;;;;;6285718;22;20000;-82
2022/03/17 06:02:28;;;;;;;60.45;34.58;;;;;;;;;;6284662;22;20000;-81
2022/03/17 06:04:54;;;;;;;61.72;33.65;;;;;;;;;;6312963;22;20461;-82
2022/03/17 06:07:20;;;;;;;62.78;34.53;;;;;;;;;;6285662;22;20082;-82
2022/03/17 06:09:46;;;;;;;57.70;33.45;;;;;;;;;;6285426;22;20502;-82
2022/03/17 06:12:13;;;;;;;62.28;35.85;;;;;;;;;;6284892;22;20007;-83
2022/03/17 06:14:39;;;;;;;63.47;37.15;;;;;;;;;;6285552;22;20007;-83
2022/03/17 06:17:05;;;;;;;66.70;36.53;;;;;;;;;;6313581;22;20006;-83
2022/03/17 06:19:31;;;;;;;67.43;38.53;;;;;;;;;;6285582;22;20025;-83
2022/03/17 06:21:58;;;;;;;66.95;36.67;;;;;;;;;;6285995;22;19999;-83
2022/03/17 06:24:24;;;;;;;65.95;38.65;;;;;;;;;;6314181;22;20003;-83
2022/03/17 06:26:50;;;;;;;70.32;38.65;;;;;;;;;;6288038;22;20061;-84
2022/03/17 06:32:20;;;;;;;63.13;37.28;;;;;;;;;;6313016;22;20072;-83
2022/03/17 06:34:46;;;;;;;75.60;39.35;;;;;;;;;;6311532;22;20010;-83
2022/03/17 06:37:12;;;;;;;75.40;42.30;;;;;;;;;;6287172;22;20507;-84
2022/03/17 06:39:38;;;;;;;76.05;42.83;;;;;;;;;;6286645;22;20003;-83
2022/03/17 06:42:04;;;;;;;74.60;44.10;;;;;;;;;;6315312;22;20022;-83
2022/03/17 06:44:30;;;;;;;72.88;40.20;;;;;;;;;;6287901;22;20003;-82
2022/03/17 06:46:56;;;;;;;73.35;44.50;;;;;;;;;;6288195;22;20003;-82
2022/03/17 06:49:22;;;;;;;72.60;41.88;;;;;;;;;;6288403;22;20000;-82
2022/03/17 06:51:48;;;;;;;68.38;40.65;;;;;;;;;;6289105;22;20053;-82
2022/03/17 06:54:14;;;;;;;64.68;36.35;;;;;;;;;;6317792;22;20003;-83
2022/03/17 06:56:40;;;;;;;64.90;36.47;;;;;;;;;;6288807;22;20029;-83
2022/03/17 06:59:06;;;;;;;67.07;36.30;;;;;;;;;;6315300;22;19995;-83
2022/03/17 07:01:32;;;;;;;65.53;35.92;;;;;;;;;;6288719;22;19995;-84
2022/03/17 07:03:58;;;;;;;66.38;37.67;;;;;;;;;;6287977;22;20326;-83
2022/03/17 07:06:24;;;;;;;61.15;37.13;;;;;;;;;;6316007;22;19999;-83
2022/03/17 07:08:50;;;;;;;73.07;38.35;;;;;;;;;;6289052;22;20003;-83
2022/03/17 07:14:20;;;;;;;62.20;36.38;;;;;;;;;;6315536;22;20022;-84
2022/03/17 07:16:46;;;;;;;64.05;36.00;;;;;;;;;;6289086;22;20385;-83
2022/03/17 07:19:12;;;;;;;64.45;37.85;;;;;;;;;;6288931;22;20056;-83
2022/03/17 07:21:39;;;;;;;66.75;39.15;;;;;;;;;;6288599;22;19999;-83
2022/03/17 07:24:05;;;;;;;67.20;40.42;;;;;;;;;;6315451;22;20056;-83
2022/03/17 07:26:32;;;;;;;67.15;39.90;;;;;;;;;;6287604;22;20027;-83
2022/03/17 07:28:58;;;;;;;71.45;40.60;;;;;;;;;;6315797;22;19999;-83
2022/03/17 07:31:24;;;;;;;69.72;42.10;;;;;;;;;;6314559;22;20014;-83
2022/03/17 07:33:50;;;;;;;63.53;39.30;;;;;;;;;;6314649;22;20025;-82
2022/03/17 07:36:17;;;;;;;63.10;38.58;;;;;;;;;;6314222;22;20022;-82
2022/03/17 07:38:43;;;;;;;65.80;37.40;;;;;;;;;;6287140;22;20003;-83
2022/03/17 07:41:09;;;;;;;67.70;39.45;;;;;;;;;;6287124;22;19999;-82
2022/03/17 07:43:35;;;;;;;84.00;41.25;;;;;;;;;;6287106;22;20046;-83
2022/03/17 07:46:01;;;;;;;66.85;38.40;;;;;;;;;;6314862;22;20004;-82
2022/03/17 07:48:27;;;;;;;65.68;41.15;;;;;;;;;;6314790;22;20006;-81
2022/03/17 07:50:52;;;;;;;69.35;38.75;;;;;;;;;;6287537;22;19999;-82
2022/03/17 07:56:22;;;;;;;66.28;37.55;;;;;;;;;;6315035;22;20046;-82
2022/03/17 07:58:48;;;;;;;69.30;40.10;;;;;;;;;;6314803;22;19995;-81
2022/03/17 08:01:16;;;;;;;61.20;36.58;;;;;;;;;;6287725;22;20090;-83
2022/03/17 08:03:42;;;;;;;66.93;38.30;;;;;;;;;;6314742;22;20022;-82
2022/03/17 08:06:10;;;;;;;68.85;39.13;;;;;;;;;;6287280;22;20003;-82
2022/03/17 08:08:37;;;;;;;68.10;40.03;;;;;;;;;;6314711;22;20104;-82
2022/03/17 08:11:03;;;;;;;68.88;39.97;;;;;;;;;;6286661;22;20004;-83
2022/03/17 08:13:29;;;;;;;61.55;38.38;;;;;;;;;;6286623;22;20010;-84
2022/03/17 08:15:55;;;;;;;64.05;38.58;;;;;;;;;;6286465;22;20086;-83
2022/03/17 08:18:21;;;;;;;66.80;39.10;;;;;;;;;;6313515;22;19995;-82
2022/03/17 08:20:47;;;;;;;64.90;39.90;;;;;;;;;;6313318;22;20000;-83
2022/03/17 08:23:21;;;;;;;64.05;38.88;;;;;;;;;;6313011;22;20000;-82
2022/03/17 08:25:48;;;;;;;62.72;37.17;;;;;;;;;;6286138;22;20019;-82
2022/03/17 08:28:14;;;;;;;64.93;38.80;;;;;;;;;;6284357;22;20010;-82
2022/03/17 08:30:40;;;;;;;66.95;38.40;;;;;;;;;;6286147;22;20007;-82
2022/03/17 08:33:06;;;;;;;66.00;39.97;;;;;;;;;;6311913;22;20000;-81
2022/03/17 08:35:32;;;;;;;70.15;39.45;;;;;;;;;;6286080;22;20521;-82
2022/03/17 08:37:58;;;;;;;64.15;38.13;;;;;;;;;;6313250;22;20002;-83
2022/03/17 08:40:24;;;;;;;60.55;36.00;;;;;;;;;;6312563;22;20002;-82
2022/03/17 08:42:51;;;;;;;62.20;38.58;;;;;;;;;;6285254;22;20438;-82
2022/03/17 08:50:47;;;;;;;60.95;38.67;;;;;;;;;;6313225;22;20077;-82
2022/03/17 08:53:14;;;;;;;65.78;40.42;;;;;;;;;;6285325;22;20452;-82
2022/03/17 08:55:39;;;;;;;68.07;39.97;;;;;;;;;;6312649;22;20234;-82
2022/03/17 08:58:06;;;;;;;67.93;39.95;;;;;;;;;;6313034;22;20007;-83
2022/03/17 09:00:34;;;;;;;66.55;39.92;;;;;;;;;;6311785;22;20082;-82
2022/03/17 09:03:01;;;;;;;66.47;39.88;;;;;;;;;;6285570;22;20068;-82
2022/03/17 09:05:28;;;;;;;71.28;39.60;;;;;;;;;;6285483;22;20026;-82
2022/03/17 09:07:55;;;;;;;64.63;40.17;;;;;;;;;;6284943;22;20389;-83
2022/03/17 09:10:22;;;;;;;66.63;38.75;;;;;;;;;;6284557;22;20113;-83
2022/03/17 09:12:48;;;;;;;63.47;39.78;;;;;;;;;;6285549;22;20003;-84
2022/03/17 09:15:14;;;;;;;67.45;42.03;;;;;;;;;;6286632;22;20319;-83
2022/03/17 09:17:43;;;;;;;67.63;40.60;;;;;;;;;;6312354;22;19995;-83
2022/03/17 09:20:12;;;;;;;66.13;40.17;;;;;;;;;;6284349;22;20030;-81
2022/03/17 09:22:40;;;;;;;69.85;43.42;;;;;;;;;;6310370;22;20490;-82
2022/03/17 09:25:07;;;;;;;61.63;37.90;;;;;;;;;;6311135;22;20435;-81
2022/03/17 09:27:33;;;;;;;63.13;38.33;;;;;;;;;;6284919;22;20049;-82
2022/03/17 09:29:59;;;;;;;64.40;41.00;;;;;;;;;;6285340;22;20057;-82
2022/03/17 09:32:25;;;;;;;61.42;38.47;;;;;;;;;;6312272;22;20010;-82
2022/03/17 09:34:51;;;;;;;59.95;38.10;;;;;;;;;;6284648;22;20467;-83
2022/03/17 09:37:17;;;;;;;59.47;36.00;;;;;;;;;;6312626;22;20082;-82
2022/03/17 09:39:47;;;;;;;58.90;37.60;;;;;;;;;;6285336;22;20086;-82
2022/03/17 09:42:15;;;;;;;59.58;38.08;;;;;;;;;;6287537;22;20414;-81
2022/03/17 09:44:41;;;;;;;63.88;38.80;;;;;;;;;;6286662;22;19999;-82
2022/03/17 09:47:09;;;;;;;53.97;37.17;;;;;;;;;;6284278;22;20010;-82
2022/03/17 09:49:37;;;;;;;58.08;37.28;;;;;;;;;;6283749;22;20465;-82
2022/03/17 09:52:11;;;;;;;55.05;38.50;;;;;;;;;;6283920;22;20003;-82
2022/03/17 09:54:37;;;;;;;53.33;36.45;;;;;;;;;;6312648;22;20009;-82
2022/03/17 09:57:04;;;;;;;49.45;34.15;;;;;;;;;;6284798;22;20042;-82
2022/03/17 09:59:31;;;;;;;52.53;35.35;;;;;;;;;;6312738;22;19995;-81
2022/03/17 10:01:59;;;;;;;54.50;34.28;;;;;;;;;;6284268;22;20007;-81
2022/03/17 10:04:30;;;;;;;50.28;34.38;;;;;;;;;;6311530;22;20003;-81
2022/03/17 10:06:57;;;;;;;56.03;35.42;;;;;;;;;;6311808;22;20006;-82
2022/03/17 10:09:23;;;;;;;48.75;33.22;;;;;;;;;;6285199;22;20010;-81
2022/03/17 10:12:00;;;;;;;45.80;31.48;;;;;;;;;;6313325;22;20000;-81
2022/03/17 10:14:38;;;;;;;49.03;33.30;;;;;;;;;;6312034;22;20000;-81
2022/03/17 10:17:05;;;;;;;46.60;32.17;;;;;;;;;;6285176;22;20048;-81
2022/03/17 10:19:34;;;;;;;44.42;31.65;;;;;;;;;;6312592;22;20494;-82
2022/03/17 10:22:07;;;;;;;48.03;34.53;;;;;;;;;;6284374;22;20007;-81
2022/03/17 10:24:36;;;;;;;41.30;30.50;;;;;;;;;;6311348;22;20003;-80
2022/03/17 10:27:03;;;;;;;44.83;31.45;;;;;;;;;;6312671;22;20003;-81
2022/03/17 10:29:29;;;;;;;41.42;29.73;;;;;;;;;;6284224;22;20054;-80
2022/03/17 10:31:58;;;;;;;42.03;30.60;;;;;;;;;;6311486;22;19999;-81
2022/03/17 10:34:29;;;;;;;43.03;30.70;;;;;;;;;;6285433;22;20068;-81
2022/03/17 10:37:09;;;;;;;44.45;31.83;;;;;;;;;;6312456;22;20398;-81
2022/03/17 10:39:39;;;;;;;40.35;29.40;;;;;;;;;;6311533;22;20355;-82
2022/03/17 10:42:12;;;;;;;44.80;31.80;;;;;;;;;;6312790;22;20006;-83
2022/03/17 10:44:39;;;;;;;40.80;30.23;;;;;;;;;;6284956;22;20017;-82
2022/03/17 10:47:05;;;;;;;40.92;28.75;;;;;;;;;;6285398;22;20030;-82
2022/03/17 10:49:31;;;;;;;42.85;31.23;;;;;;;;;;6286117;22;20022;-81
2022/03/17 10:51:58;;;;;;;41.05;29.65;;;;;;;;;;6286514;22;20007;-82
2022/03/17 10:54:24;;;;;;;39.70;28.23;;;;;;;;;;6286550;22;20007;-81
2022/03/17 10:57:18;;;;;;;38.60;29.60;;;;;;;;;;6314816;22;20006;-83
2022/03/17 10:59:47;;;;;;;44.63;30.00;;;;;;;;;;6281167;22;20000;-82
2022/03/17 11:02:14;;;;;;;42.33;30.58;;;;;;;;;;6287716;22;20014;-82
2022/03/17 11:04:41;;;;;;;38.03;28.98;;;;;;;;;;6314740;22;20011;-83
2022/03/17 11:07:10;;;;;;;40.70;27.15;;;;;;;;;;6286416;22;20007;-82
2022/03/17 11:09:38;;;;;;;39.70;28.55;;;;;;;;;;6285615;22;20030;-81
2022/03/17 11:12:05;;;;;;;40.55;29.00;;;;;;;;;;6288011;22;20102;-81
2022/03/17 11:14:32;;;;;;;37.78;29.20;;;;;;;;;;6313876;22;20006;-83
2022/03/17 11:16:59;;;;;;;36.20;27.65;;;;;;;;;;6289010;22;19999;-82
2022/03/17 11:19:25;;;;;;;33.88;25.55;;;;;;;;;;6312878;22;20063;-82
2022/03/17 11:22:04;;;;;;;38.88;25.98;;;;;;;;;;6317721;22;19995;-82
2022/03/17 11:24:31;;;;;;;34.22;24.23;;;;;;;;;;6317744;22;20007;-82
2022/03/17 11:27:10;;;;;;;31.98;25.08;;;;;;;;;;6289710;22;20014;-83
2022/03/17 11:29:40;;;;;;;34.72;25.90;;;;;;;;;;6287749;22;20029;-82
2022/03/17 11:32:09;;;;;;;34.70;26.67;;;;;;;;;;6288060;22;20442;-83
2022/03/17 11:34:38;;;;;;;34.60;25.90;;;;;;;;;;6314784;22;20338;-82
2022/03/17 11:37:20;;;;;;;32.42;25.25;;;;;;;;;;6287503;22;20052;-82
2022/03/17 11:39:57;;;;;;;33.17;26.88;;;;;;;;;;6287994;22;19991;-82
2022/03/17 11:42:41;;;;;;;29.42;21.48;;;;;;;;;;6288744;22;20003;-82
2022/03/17 11:45:10;;;;;;;25.02;18.75;;;;;;;;;;6288404;22;20075;-82
2022/03/17 11:47:37;;;;;;;28.58;18.65;;;;;;;;;;6286831;22;19999;-82
2022/03/17 11:50:40;;;;;;;25.48;19.55;;;;;;;;;;6315930;22;20003;-80
2022/03/17 11:53:19;;;;;;;27.15;20.10;;;;;;;;;;6135995;23;20008;-81
2022/03/17 11:55:45;;;;;;;25.65;19.10;;;;;;;;;;6161191;23;20013;-82
2022/03/17 11:58:33;;;;;;;27.75;20.05;;;;;;;;;;6159914;23;20020;-84
2022/03/17 12:01:03;;;;;;;26.80;19.70;;;;;;;;;;6160815;23;20346;-83
2022/03/17 12:03:37;;;;;;;26.13;19.27;;;;;;;;;;6136741;23;20323;-82
2022/03/17 12:06:06;;;;;;;27.65;18.08;;;;;;;;;;6136808;23;20192;-83
2022/03/17 12:08:34;;;;;;;26.23;18.98;;;;;;;;;;6136785;23;20014;-82
2022/03/17 12:11:08;;;;;;;24.15;18.90;;;;;;;;;;6159928;23;20092;-82
2022/03/17 12:13:36;;;;;;;27.45;19.63;;;;;;;;;;6160216;23;20005;-82
2022/03/17 12:16:03;;;;;;;24.65;18.55;;;;;;;;;;6160514;23;20064;-82
2022/03/17 12:18:29;;;;;;;24.85;18.63;;;;;;;;;;6135063;23;19998;-82
2022/03/17 12:20:57;;;;;;;26.80;20.85;;;;;;;;;;6135847;23;20002;-83
2022/03/17 12:23:42;;;;;;;26.30;20.48;;;;;;;;;;6160079;23;20481;-82
2022/03/17 12:26:08;;;;;;;23.80;15.80;;;;;;;;;;6133612;23;20006;-81
2022/03/17 12:28:34;;;;;;;24.38;17.58;;;;;;;;;;6193347;22;20031;-83
2022/03/17 12:31:00;;;;;;;24.60;17.40;;;;;;;;;;6283460;22;20006;-81
2022/03/17 12:33:26;;;;;;;24.27;16.42;;;;;;;;;;6284772;22;20045;-83
2022/03/17 12:36:05;;;;;;;23.27;16.92;;;;;;;;;;6285799;22;20010;-82
2022/03/17 12:38:32;;;;;;;26.23;17.10;;;;;;;;;;6288244;22;19996;-82
2022/03/17 12:41:00;;;;;;;21.88;17.10;;;;;;;;;;6262790;22;20004;-82
2022/03/17 12:43:26;;;;;;;24.63;17.48;;;;;;;;;;6292198;22;20076;-82
2022/03/17 12:45:53;;;;;;;24.48;18.63;;;;;;;;;;6259963;22;20014;-82
2022/03/17 12:48:20;;;;;;;23.42;17.05;;;;;;;;;;6283985;22;20026;-82
2022/03/17 12:50:46;;;;;;;22.17;16.85;;;;;;;;;;6284725;22;20011;-82
2022/03/17 12:53:13;;;;;;;21.58;16.27;;;;;;;;;;6284882;22;20003;-82
2022/03/17 12:55:39;;;;;;;21.33;15.68;;;;;;;;;;6252450;22;20086;-82
2022/03/17 12:58:05;;;;;;;19.02;15.80;;;;;;;;;;6278536;22;20016;-82
2022/03/17 13:00:32;;;;;;;24.50;16.83;;;;;;;;;;6284913;22;20232;-82
2022/03/17 13:02:59;;;;;;;21.73;16.15;;;;;;;;;;6283948;22;19995;-82
2022/03/17 13:08:11;;;;;;;23.92;16.48;;;;;;;;;;6283768;22;20038;-83
2022/03/17 13:16:08;;;;;;;24.70;17.42;;;;;;;;;;6290353;22;20267;-83
2022/03/17 13:18:49;;;;;;;20.92;16.08;;;;;;;;;;6287000;22;19995;-83
2022/03/17 13:21:18;;;;;;;20.90;14.90;;;;;;;;;;6284218;22;20010;-83
2022/03/17 13:23:44;;;;;;;23.02;17.10;;;;;;;;;;6283408;22;20000;-82
2022/03/17 13:26:10;;;;;;;22.88;18.08;;;;;;;;;;6283069;22;20011;-83
2022/03/17 13:28:36;;;;;;;24.38;18.15;;;;;;;;;;6282758;22;20083;-83
2022/03/17 13:31:03;;;;;;;25.98;18.80;;;;;;;;;;6282747;22;20000;-83
2022/03/17 13:33:29;;;;;;;25.50;19.13;;;;;;;;;;6279938;22;20038;-83
2022/03/17 13:35:56;;;;;;;24.50;17.63;;;;;;;;;;6278978;22;20011;-83
2022/03/17 13:38:29;;;;;;;22.52;16.73;;;;;;;;;;6280349;22;20002;-82
2022/03/17 13:40:56;;;;;;;23.20;16.73;;;;;;;;;;6281189;22;19991;-82
2022/03/17 13:43:29;;;;;;;24.58;18.40;;;;;;;;;;6281240;22;20059;-83
2022/03/17 13:45:55;;;;;;;;;;;;;;;;;;6282114;22;20333;-82
2022/03/17 13:48:22;;;;;;;24.73;18.83;;;;;;;;;;6280160;22;19903;-82
2022/03/17 13:50:48;;;;;;;27.75;19.40;;;;;;;;;;6283305;22;20004;-82
2022/03/17 13:53:15;;;;;;;23.55;18.02;;;;;;;;;;6286368;22;20049;-81
2022/03/17 13:55:41;;;;;;;26.55;18.40;;;;;;;;;;6282577;22;20004;-82
2022/03/17 13:58:15;;;;;;;24.95;18.42;;;;;;;;;;6306686;22;20097;-81
2022/03/17 14:00:41;;;;;;;27.08;19.88;;;;;;;;;;6312155;22;20074;-81
2022/03/17 14:03:32;;;;;;;26.40;18.50;;;;;;;;;;6311166;22;19996;-80
2022/03/17 14:06:01;;;;;;;28.77;18.45;;;;;;;;;;6292026;22;20137;-80
2022/03/17 14:08:28;;;;;;;26.58;18.00;;;;;;;;;;6282449;22;20510;-81
2022/03/17 14:10:56;;;;;;;26.63;18.08;;;;;;;;;;6311136;22;20031;-81
2022/03/17 14:13:22;;;;;;;25.23;18.15;;;;;;;;;;6311055;22;20461;-81
2022/03/17 14:15:49;;;;;;;26.83;18.33;;;;;;;;;;6311148;22;20332;-81
2022/03/17 14:18:15;;;;;;;24.55;18.73;;;;;;;;;;6310523;22;19996;-81
2022/03/17 14:20:41;;;;;;;25.45;18.45;;;;;;;;;;6311359;22;20053;-81
2022/03/17 14:25:52;;;;;;;26.90;20.17;;;;;;;;;;6310956;22;20035;-81
2022/03/17 14:28:19;;;;;;;26.85;19.15;;;;;;;;;;6311429;22;20010;-81
2022/03/17 14:30:45;;;;;;;28.88;20.08;;;;;;;;;;6311839;22;20007;-81
2022/03/17 14:33:11;;;;;;;25.65;18.42;;;;;;;;;;6284754;22;20093;-80
2022/03/17 14:35:38;;;;;;;27.63;20.30;;;;;;;;;;6284079;22;20082;-80
2022/03/17 14:38:04;;;;;;;27.77;18.65;;;;;;;;;;6283603;22;20005;-80
2022/03/17 14:40:30;;;;;;;26.92;19.05;;;;;;;;;;6282764;22;20003;-80
2022/03/17 14:42:57;;;;;;;28.13;19.73;;;;;;;;;;6311793;22;19998;-81
2022/03/17 14:45:24;;;;;;;26.45;17.27;;;;;;;;;;6311465;22;20010;-81
2022/03/17 14:47:50;;;;;;;26.65;18.42;;;;;;;;;;6284370;22;20313;-81
2022/03/17 14:50:16;;;;;;;25.20;18.42;;;;;;;;;;6311620;22;20053;-81
2022/03/17 14:52:44;;;;;;;25.05;18.30;;;;;;;;;;6311553;22;20046;-81
2022/03/17 14:55:10;;;;;;;24.63;18.58;;;;;;;;;;6284052;22;20011;-81
2022/03/17 14:57:36;;;;;;;27.38;18.40;;;;;;;;;;6313566;22;20014;-80
2022/03/17 15:00:02;;;;;;;29.33;19.60;;;;;;;;;;6285422;22;20000;-80
2022/03/17 15:02:29;;;;;;;26.85;18.42;;;;;;;;;;6286668;22;20090;-81
2022/03/17 15:04:55;;;;;;;25.02;18.50;;;;;;;;;;6286239;22;20010;-82
2022/03/17 15:07:21;;;;;;;29.00;19.55;;;;;;;;;;6285968;22;20014;-81
2022/03/17 15:09:47;;;;;;;25.08;17.77;;;;;;;;;;6312587;22;20003;-81
2022/03/17 15:12:13;;;;;;;26.25;19.58;;;;;;;;;;6285827;22;20038;-81
2022/03/17 15:14:39;;;;;;;28.80;18.98;;;;;;;;;;6313364;22;20025;-81
2022/03/17 15:17:06;;;;;;;28.42;20.80;;;;;;;;;;6286036;22;20030;-81
2022/03/17 15:19:32;;;;;;;29.23;20.25;;;;;;;;;;6285447;22;20034;-81
2022/03/17 15:22:00;;;;;;;30.25;21.33;;;;;;;;;;6286579;22;19999;-81
2022/03/17 15:24:26;;;;;;;29.90;20.50;;;;;;;;;;6312899;22;20003;-81